Time;durP1;ratioP1;P1;durP2;ratioP2;P2;SDS_P1;SDS_P2;PMS_P1;PMS_P2;Temp;Humidity;BMP_temperature;BMP_pressure;BME280_temperature;BME280_humidity;BME280_pressure;Samples;Min_cycle;Max_cycle;Signal;HPM_P1;HPM_P2
2021/07/12 00:02:05;;;;;;;21.10;15.20;;;19.00;99.90;;;;;;4974800;28;20191;-72
2021/07/12 00:04:30;;;;;;;19.23;14.47;;;19.00;99.90;;;;;;4974735;28;20657;-73
2021/07/12 00:06:56;;;;;;;19.57;14.47;;;18.90;99.90;;;;;;4974545;28;20543;-72
2021/07/12 00:09:21;;;;;;;19.63;14.23;;;18.90;99.90;;;;;;4975370;28;20228;-72
2021/07/12 00:11:47;;;;;;;20.27;14.90;;;18.90;99.90;;;;;;4975720;28;20181;-73
2021/07/12 00:14:12;;;;;;;19.33;13.90;;;18.80;99.90;;;;;;4958408;28;20181;-72
2021/07/12 00:16:38;;;;;;;21.87;15.20;;;18.80;99.90;;;;;;4975741;28;20181;-72
2021/07/12 00:19:04;;;;;;;21.57;14.63;;;18.80;99.90;;;;;;4974160;28;20201;-72
2021/07/12 00:21:29;;;;;;;24.43;14.20;;;18.80;99.90;;;;;;4974382;28;20181;-73
2021/07/12 00:23:55;;;;;;;21.50;14.77;;;18.80;99.90;;;;;;4974359;28;20205;-72
2021/07/12 00:26:21;;;;;;;19.43;14.20;;;18.80;99.90;;;;;;4974334;28;20284;-72
2021/07/12 00:28:46;;;;;;;19.53;14.67;;;18.80;99.90;;;;;;4973878;28;20252;-72
2021/07/12 00:31:12;;;;;;;19.33;14.17;;;18.80;99.90;;;;;;4958105;28;20173;-72
2021/07/12 00:33:39;;;;;;;21.67;14.80;;;18.90;99.90;;;;;;4974191;28;20177;-72
2021/07/12 00:36:05;;;;;;;20.13;14.83;;;18.80;99.90;;;;;;4975245;28;20169;-73
2021/07/12 00:38:31;;;;;;;22.70;14.00;;;18.80;99.90;;;;;;4973982;28;20173;-73
2021/07/12 00:40:56;;;;;;;21.40;14.43;;;18.80;99.90;;;;;;4975157;28;20718;-72
2021/07/12 00:43:22;;;;;;;23.80;13.90;;;18.80;99.90;;;;;;4975336;28;20673;-73
2021/07/12 00:45:48;;;;;;;20.53;14.13;;;18.80;99.90;;;;;;4975141;28;20221;-72
2021/07/12 00:48:14;;;;;;;19.30;13.20;;;18.80;99.90;;;;;;4975051;28;20208;-72
2021/07/12 00:50:41;;;;;;;20.27;14.83;;;18.80;99.90;;;;;;4973468;28;20637;-72
2021/07/12 00:53:07;;;;;;;21.93;14.57;;;18.80;99.90;;;;;;4973830;28;20180;-72
2021/07/12 00:55:38;;;;;;;20.63;14.43;;;18.90;99.90;;;;;;4973812;28;20177;-72
2021/07/12 00:58:26;;;;;;;16.27;12.90;;;18.90;99.90;;;;;;4973902;28;20652;-73
2021/07/12 01:00:54;;;;;;;21.47;14.67;;;19.00;99.90;;;;;;4973299;28;20223;-72
2021/07/12 01:03:19;;;;;;;20.33;14.53;;;19.00;99.90;;;;;;4973621;28;20177;-72
2021/07/12 01:05:45;;;;;;;18.30;13.70;;;19.00;99.90;;;;;;4974813;28;20188;-73
2021/07/12 01:08:11;;;;;;;19.73;14.50;;;19.00;99.90;;;;;;4973668;28;20268;-72
2021/07/12 01:10:36;;;;;;;22.03;13.63;;;19.00;99.90;;;;;;4973026;28;20238;-73
2021/07/12 01:13:20;;;;;;;19.43;13.37;;;19.00;99.90;;;;;;4973416;28;20176;-72
2021/07/12 01:16:14;;;;;;;21.43;14.87;;;18.90;99.90;;;;;;4973452;28;20364;-73
2021/07/12 01:19:07;;;;;;;17.80;14.13;;;18.90;99.90;;;;;;4973250;28;20197;-73
2021/07/12 01:22:03;;;;;;;20.53;14.10;;;18.80;99.90;;;;;;4973470;28;20177;-72
2021/07/12 01:24:51;;;;;;;19.77;13.60;;;18.70;99.90;;;;;;4973456;28;20181;-72
2021/07/12 01:27:38;;;;;;;18.07;13.70;;;18.70;99.90;;;;;;4975007;28;20172;-72
2021/07/12 01:30:07;;;;;;;18.50;12.43;;;18.60;99.90;;;;;;4974122;28;20228;-72
2021/07/12 01:32:38;;;;;;;25.13;12.47;;;18.50;99.90;;;;;;4973162;28;20180;-72
2021/07/12 01:35:09;;;;;;;17.83;13.43;;;18.50;99.90;;;;;;4957553;28;20510;-72
2021/07/12 01:37:39;;;;;;;19.00;13.70;;;18.50;99.90;;;;;;4974322;28;20648;-72
2021/07/12 01:40:07;;;;;;;19.47;13.50;;;18.40;99.90;;;;;;4956627;28;20205;-73
2021/07/12 01:43:00;;;;;;;19.37;14.00;;;18.40;99.90;;;;;;4956888;28;20188;-72
2021/07/12 01:45:26;;;;;;;18.47;12.40;;;18.40;99.90;;;;;;4973133;28;20173;-72
2021/07/12 01:48:07;;;;;;;18.77;13.07;;;18.30;99.90;;;;;;4972864;28;20641;-72
2021/07/12 01:50:48;;;;;;;17.50;12.83;;;18.40;99.90;;;;;;4972471;28;20212;-73
2021/07/12 01:53:30;;;;;;;19.17;13.07;;;18.30;99.90;;;;;;4972745;28;20180;-73
2021/07/12 01:56:17;;;;;;;19.23;13.80;;;18.40;99.90;;;;;;4956539;28;20250;-72
2021/07/12 01:58:46;;;;;;;18.30;13.47;;;18.40;99.90;;;;;;4972370;28;20200;-72
2021/07/12 02:01:11;;;;;;;19.17;13.73;;;18.50;99.90;;;;;;4972608;28;20173;-72
2021/07/12 02:03:37;;;;;;;20.43;13.33;;;18.50;99.90;;;;;;4972451;28;20169;-73
2021/07/12 02:06:05;;;;;;;20.27;13.90;;;18.50;99.90;;;;;;4972494;28;20686;-72
2021/07/12 02:08:31;;;;;;;18.63;12.90;;;18.50;99.90;;;;;;4972265;28;20185;-73
2021/07/12 02:10:56;;;;;;;19.27;13.90;;;18.60;99.90;;;;;;4971561;28;20201;-73
2021/07/12 02:13:22;;;;;;;20.57;13.73;;;18.50;99.90;;;;;;4956261;28;20185;-72
2021/07/12 02:15:49;;;;;;;18.47;13.60;;;18.50;99.90;;;;;;4955536;28;20204;-72
2021/07/12 02:18:15;;;;;;;19.50;14.07;;;18.40;99.90;;;;;;4972127;28;20173;-73
2021/07/12 02:20:41;;;;;;;19.53;13.23;;;18.40;99.90;;;;;;4972047;28;20180;-73
2021/07/12 02:23:06;;;;;;;19.43;11.77;;;18.40;99.90;;;;;;4972275;28;20180;-72
2021/07/12 02:25:32;;;;;;;19.23;12.23;;;18.40;99.90;;;;;;4972205;28;20208;-72
2021/07/12 02:27:57;;;;;;;18.70;12.30;;;18.30;99.90;;;;;;4972204;28;20181;-73
2021/07/12 02:30:24;;;;;;;17.37;12.27;;;18.30;99.90;;;;;;4971817;28;20263;-73
2021/07/12 02:32:50;;;;;;;20.10;12.37;;;18.20;99.90;;;;;;4955863;28;20184;-72
2021/07/12 02:35:16;;;;;;;29.10;19.20;;;18.20;99.90;;;;;;4972087;28;20181;-73
2021/07/12 02:37:43;;;;;;;29.77;20.53;;;18.20;99.90;;;;;;4972139;28;20179;-72
2021/07/12 02:40:10;;;;;;;24.67;20.37;;;18.20;99.90;;;;;;4971732;28;20205;-73
2021/07/12 02:42:37;;;;;;;29.93;22.83;;;18.10;99.90;;;;;;4971999;28;20185;-72
2021/07/12 02:45:03;;;;;;;26.83;21.50;;;18.10;99.90;;;;;;4973171;28;20195;-73
2021/07/12 02:47:29;;;;;;;27.73;21.23;;;18.10;99.90;;;;;;4971806;28;20264;-72
2021/07/12 02:49:55;;;;;;;30.67;23.07;;;18.20;99.90;;;;;;4971546;28;20220;-73
2021/07/12 02:52:22;;;;;;;27.27;22.70;;;18.10;99.90;;;;;;4971921;28;20173;-72
2021/07/12 02:54:48;;;;;;;27.10;20.87;;;18.20;99.90;;;;;;4973127;28;20580;-72
2021/07/12 02:57:14;;;;;;;29.07;22.37;;;18.20;99.90;;;;;;4971897;28;20206;-73
2021/07/12 02:59:40;;;;;;;26.13;21.50;;;18.10;99.90;;;;;;4971587;28;20200;-72
2021/07/12 03:02:05;;;;;;;24.00;20.90;;;18.00;99.90;;;;;;4972958;28;20700;-72
2021/07/12 03:04:31;;;;;;;29.37;22.57;;;18.00;99.90;;;;;;4955703;28;20192;-72
2021/07/12 03:06:58;;;;;;;27.70;21.27;;;17.90;99.90;;;;;;4973000;28;20542;-73
2021/07/12 03:09:28;;;;;;;25.47;21.20;;;17.90;99.90;;;;;;4971331;28;20204;-73
2021/07/12 03:11:56;;;;;;;24.40;20.13;;;17.80;99.90;;;;;;4971934;28;20616;-72
2021/07/12 03:14:34;;;;;;;28.73;20.83;;;17.80;99.90;;;;;;4955669;28;20180;-72
2021/07/12 03:17:01;;;;;;;26.40;19.77;;;17.70;99.90;;;;;;4971878;28;20232;-72
2021/07/12 03:19:29;;;;;;;26.10;21.17;;;17.70;99.90;;;;;;4971559;28;20388;-72
2021/07/12 03:21:55;;;;;;;26.50;20.67;;;17.60;99.90;;;;;;4972062;28;20185;-72
2021/07/12 03:24:20;;;;;;;25.77;20.87;;;17.60;99.90;;;;;;4975502;28;20185;-73
2021/07/12 03:26:46;;;;;;;24.13;19.67;;;17.60;99.90;;;;;;4975429;28;20192;-72
2021/07/12 03:29:15;;;;;;;23.27;19.87;;;17.60;99.90;;;;;;4974870;28;20223;-72
2021/07/12 03:31:41;;;;;;;26.63;19.87;;;17.60;99.90;;;;;;4959126;28;20177;-72
2021/07/12 03:34:08;;;;;;;26.53;20.70;;;17.60;99.90;;;;;;4975109;28;20723;-72
2021/07/12 03:36:33;;;;;;;26.40;21.87;;;17.70;99.90;;;;;;4975111;28;20173;-73
2021/07/12 03:38:59;;;;;;;23.77;20.83;;;17.70;99.90;;;;;;4958593;28;20207;-73
2021/07/12 03:41:25;;;;;;;24.90;20.87;;;17.70;99.90;;;;;;4974989;28;20181;-73
2021/07/12 03:43:51;;;;;;;25.97;22.00;;;17.70;99.90;;;;;;4974892;28;20185;-72
2021/07/12 03:46:16;;;;;;;27.30;21.77;;;17.70;99.90;;;;;;4974800;28;20582;-73
2021/07/12 03:48:44;;;;;;;23.83;19.13;;;17.70;99.90;;;;;;4975851;28;20608;-73
2021/07/12 03:51:12;;;;;;;24.53;20.60;;;17.70;99.90;;;;;;4975971;28;20177;-73
2021/07/12 03:53:38;;;;;;;22.33;19.40;;;17.60;99.90;;;;;;4975037;28;20181;-73
2021/07/12 03:56:03;;;;;;;28.77;20.43;;;17.60;99.90;;;;;;4974718;28;20260;-72
2021/07/12 03:58:29;;;;;;;28.77;21.23;;;17.60;99.90;;;;;;4974507;28;20172;-73
2021/07/12 04:00:55;;;;;;;25.47;21.57;;;17.60;99.90;;;;;;4974567;28;20672;-72
2021/07/12 04:03:20;;;;;;;27.27;21.10;;;17.60;99.90;;;;;;4974817;28;20170;-72
2021/07/12 04:05:46;;;;;;;26.33;22.40;;;17.70;99.90;;;;;;4974651;28;20208;-72
2021/07/12 04:08:11;;;;;;;30.37;22.67;;;17.70;99.90;;;;;;4974546;28;20177;-72
2021/07/12 04:10:37;;;;;;;28.80;21.50;;;17.70;99.90;;;;;;4975203;28;20723;-72
2021/07/12 04:13:03;;;;;;;25.87;21.83;;;17.80;99.90;;;;;;4974533;28;20649;-73
2021/07/12 04:15:29;;;;;;;27.00;21.27;;;17.90;99.90;;;;;;4974402;28;20181;-72
2021/07/12 04:17:54;;;;;;;28.00;22.30;;;18.00;99.90;;;;;;4974495;28;20208;-73
2021/07/12 04:20:20;;;;;;;28.80;21.70;;;18.00;99.90;;;;;;4974036;28;20197;-73
2021/07/12 04:22:45;;;;;;;25.53;21.00;;;18.00;99.90;;;;;;4974304;28;20259;-72
2021/07/12 04:25:12;;;;;;;27.00;21.60;;;18.00;99.90;;;;;;4958040;28;20201;-72
2021/07/12 04:27:38;;;;;;;27.83;22.37;;;18.10;99.90;;;;;;4974065;28;20224;-72
2021/07/12 04:30:05;;;;;;;28.07;22.40;;;18.20;99.90;;;;;;4957579;28;20224;-73
2021/07/12 04:32:30;;;;;;;29.10;22.20;;;18.20;99.90;;;;;;4974038;28;20174;-72
2021/07/12 04:34:56;;;;;;;26.60;21.40;;;18.30;99.90;;;;;;4974650;28;20660;-72
2021/07/12 04:37:21;;;;;;;28.27;22.70;;;18.40;99.90;;;;;;4975299;28;20201;-73
2021/07/12 04:39:47;;;;;;;25.30;22.27;;;18.60;99.90;;;;;;4973750;28;20264;-73
2021/07/12 04:42:12;;;;;;;26.33;21.77;;;18.60;99.90;;;;;;4973939;28;20189;-73
2021/07/12 04:44:38;;;;;;;27.40;22.43;;;18.70;99.90;;;;;;4974095;28;20185;-72
2021/07/12 04:47:04;;;;;;;29.40;23.10;;;18.80;99.90;;;;;;4975190;28;20185;-72
2021/07/12 04:49:29;;;;;;;28.03;22.73;;;18.90;99.90;;;;;;4973540;28;20220;-72
2021/07/12 04:51:55;;;;;;;27.80;22.90;;;19.00;99.90;;;;;;4974061;28;20185;-73
2021/07/12 04:54:20;;;;;;;31.03;24.07;;;19.00;99.90;;;;;;4973825;28;20280;-72
2021/07/12 04:56:46;;;;;;;32.90;23.83;;;18.90;99.90;;;;;;4975379;28;20196;-72
2021/07/12 04:59:12;;;;;;;28.73;24.20;;;18.90;99.90;;;;;;4974596;28;20251;-73
2021/07/12 05:01:39;;;;;;;32.00;25.80;;;18.90;99.90;;;;;;4973677;28;20671;-72
2021/07/12 05:04:04;;;;;;;36.13;26.27;;;18.90;99.90;;;;;;4973704;28;20264;-73
2021/07/12 05:06:30;;;;;;;33.97;26.50;;;18.90;99.90;;;;;;4973608;28;20241;-72
2021/07/12 05:08:56;;;;;;;33.33;26.03;;;18.90;99.90;;;;;;4974867;28;20307;-72
2021/07/12 05:11:22;;;;;;;34.07;27.43;;;18.90;99.90;;;;;;4973508;28;20264;-72
2021/07/12 05:13:48;;;;;;;32.10;25.47;;;19.00;99.90;;;;;;4957429;28;20185;-72
2021/07/12 05:16:13;;;;;;;31.17;25.87;;;19.00;99.90;;;;;;4973433;28;20185;-72
2021/07/12 05:18:39;;;;;;;34.33;26.27;;;19.00;99.90;;;;;;4973146;28;20197;-72
2021/07/12 05:21:05;;;;;;;34.57;26.20;;;19.00;99.90;;;;;;4973254;28;20188;-72
2021/07/12 05:23:30;;;;;;;32.90;26.57;;;19.00;99.90;;;;;;4974462;28;20293;-72
2021/07/12 05:25:56;;;;;;;32.93;26.73;;;19.10;99.90;;;;;;4973226;28;20216;-72
2021/07/12 05:28:22;;;;;;;31.10;25.83;;;19.30;99.90;;;;;;4973052;28;20208;-73
2021/07/12 05:30:48;;;;;;;32.30;25.57;;;19.40;99.90;;;;;;4972925;28;20211;-72
2021/07/12 05:33:13;;;;;;;33.20;26.70;;;19.40;99.90;;;;;;4974377;28;20268;-72
2021/07/12 05:35:39;;;;;;;41.83;27.97;;;19.50;99.90;;;;;;4956908;28;20177;-72
2021/07/12 05:38:04;;;;;;;34.23;27.07;;;19.60;99.90;;;;;;4973030;28;20240;-73
2021/07/12 05:40:31;;;;;;;37.60;27.50;;;19.70;99.90;;;;;;4972675;28;20672;-72
2021/07/12 05:42:56;;;;;;;33.27;25.90;;;19.90;99.90;;;;;;4972853;28;20239;-72
2021/07/12 05:45:22;;;;;;;34.00;27.53;;;20.00;99.90;;;;;;4972235;28;20181;-72
2021/07/12 05:47:48;;;;;;;38.57;25.90;;;20.10;99.90;;;;;;4956414;28;20564;-72
2021/07/12 05:50:14;;;;;;;32.83;25.87;;;20.50;99.90;;;;;;4972545;28;20235;-72
2021/07/12 05:52:40;;;;;;;29.17;24.43;;;20.90;99.90;;;;;;4972786;28;20264;-72
2021/07/12 05:55:06;;;;;;;32.87;24.17;;;20.90;99.90;;;;;;4956529;28;20351;-72
2021/07/12 05:57:31;;;;;;;29.67;24.53;;;21.00;99.90;;;;;;4956656;28;20184;-72
2021/07/12 05:59:57;;;;;;;30.23;25.60;;;21.00;99.90;;;;;;4972381;28;20263;-72
2021/07/12 06:02:23;;;;;;;31.13;25.03;;;21.10;99.90;;;;;;4956444;28;20657;-73
2021/07/12 06:04:48;;;;;;;35.23;25.33;;;21.00;99.90;;;;;;4973804;28;20534;-73
2021/07/12 06:07:14;;;;;;;31.73;24.77;;;21.00;99.90;;;;;;4973810;28;20476;-72
2021/07/12 06:09:39;;;;;;;29.40;24.70;;;21.00;99.90;;;;;;4973093;28;20227;-72
2021/07/12 06:12:05;;;;;;;32.23;24.53;;;21.40;99.90;;;;;;4973611;28;20180;-72
2021/07/12 06:14:31;;;;;;;30.50;25.13;;;21.60;99.90;;;;;;4972330;28;20649;-72
2021/07/12 06:16:56;;;;;;;28.73;24.43;;;21.90;99.90;;;;;;4972392;28;20223;-72
2021/07/12 06:19:22;;;;;;;31.53;24.70;;;21.90;99.90;;;;;;4973322;28;20279;-72
2021/07/12 06:21:47;;;;;;;29.27;23.33;;;22.00;99.90;;;;;;4973494;28;20193;-72
2021/07/12 06:24:13;;;;;;;34.20;22.77;;;22.40;99.90;;;;;;4972196;28;20189;-72
2021/07/12 06:26:38;;;;;;;28.47;22.13;;;22.60;99.90;;;;;;4956093;28;20177;-72
2021/07/12 06:29:04;;;;;;;28.17;22.20;;;22.90;99.90;;;;;;4971822;28;20204;-73
2021/07/12 06:31:29;;;;;;;27.37;21.80;;;23.00;99.90;;;;;;4972245;28;20177;-73
2021/07/12 06:33:55;;;;;;;26.50;22.67;;;22.80;99.90;;;;;;4956010;28;20207;-73
2021/07/12 06:36:20;;;;;;;28.53;22.87;;;22.60;99.90;;;;;;4972161;28;20181;-73
2021/07/12 06:38:46;;;;;;;28.03;22.63;;;22.40;99.90;;;;;;4971955;28;20284;-73
2021/07/12 06:41:11;;;;;;;24.07;21.07;;;22.20;99.90;;;;;;4972071;28;20181;-73
2021/07/12 06:43:37;;;;;;;27.57;22.43;;;22.10;99.90;;;;;;4973280;28;20258;-73
2021/07/12 06:46:03;;;;;;;25.83;22.10;;;22.00;99.90;;;;;;4972097;28;20188;-73
2021/07/12 06:48:28;;;;;;;31.00;21.07;;;21.90;99.90;;;;;;4971982;28;20192;-72
2021/07/12 06:50:54;;;;;;;26.80;21.23;;;21.90;99.90;;;;;;4971768;28;20287;-72
2021/07/12 06:53:19;;;;;;;24.07;19.60;;;22.00;99.90;;;;;;4971866;28;20208;-72
2021/07/12 06:55:45;;;;;;;23.43;20.33;;;22.20;99.90;;;;;;4971832;28;20185;-72
2021/07/12 06:58:12;;;;;;;23.13;20.30;;;22.30;99.90;;;;;;4974379;28;20655;-72
2021/07/12 07:00:39;;;;;;;23.50;20.53;;;22.40;99.90;;;;;;4975754;28;20676;-72
2021/07/12 07:03:04;;;;;;;24.33;19.57;;;22.50;99.90;;;;;;4959608;28;20664;-72
2021/07/12 07:05:30;;;;;;;23.77;19.10;;;22.40;99.90;;;;;;4975872;28;20184;-73
2021/07/12 07:07:56;;;;;;;23.83;20.13;;;22.60;99.90;;;;;;4975828;28;20177;-73
2021/07/12 07:10:21;;;;;;;24.17;19.30;;;22.50;99.90;;;;;;4975362;28;20718;-73
2021/07/12 07:12:47;;;;;;;26.10;20.27;;;22.60;99.90;;;;;;4975682;28;20330;-73
2021/07/12 07:15:13;;;;;;;22.10;18.50;;;22.70;99.90;;;;;;4975715;28;20267;-73
2021/07/12 07:17:38;;;;;;;24.50;19.20;;;22.60;99.90;;;;;;4975703;28;20192;-73
2021/07/12 07:20:05;;;;;;;24.13;18.60;;;22.70;99.90;;;;;;4975410;28;20201;-72
2021/07/12 07:22:30;;;;;;;25.63;19.87;;;22.90;99.90;;;;;;4975477;28;20195;-72
2021/07/12 07:24:56;;;;;;;25.90;19.73;;;23.00;99.90;;;;;;4975513;28;20252;-72
2021/07/12 07:27:21;;;;;;;25.03;22.30;;;23.10;99.90;;;;;;4976675;28;20207;-73
2021/07/12 07:29:47;;;;;;;29.90;21.77;;;23.10;99.90;;;;;;4975086;28;20364;-72
2021/07/12 07:32:13;;;;;;;26.03;21.97;;;23.10;99.90;;;;;;4975467;28;20236;-72
2021/07/12 07:34:39;;;;;;;25.03;20.67;;;23.10;99.90;;;;;;4975331;28;20640;-72
2021/07/12 07:37:05;;;;;;;24.03;20.20;;;23.20;99.90;;;;;;4975207;28;20169;-73
2021/07/12 07:39:30;;;;;;;25.17;20.40;;;23.30;99.90;;;;;;4976173;28;20201;-72
2021/07/12 07:41:58;;;;;;;24.80;20.10;;;23.30;99.90;;;;;;4975150;28;20181;-72
2021/07/12 07:44:24;;;;;;;29.47;21.37;;;23.30;99.90;;;;;;4975224;28;20541;-72
2021/07/12 07:46:49;;;;;;;22.80;20.33;;;23.30;99.90;;;;;;4959035;28;20192;-73
2021/07/12 07:49:15;;;;;;;25.03;20.73;;;23.30;99.90;;;;;;4974789;28;20211;-72
2021/07/12 07:51:41;;;;;;;25.77;20.07;;;23.30;99.90;;;;;;4976143;28;20688;-72
2021/07/12 07:54:07;;;;;;;24.73;19.87;;;23.50;99.90;;;;;;4975068;28;20173;-72
2021/07/12 07:56:32;;;;;;;23.57;19.50;;;23.70;99.90;;;;;;4974895;28;20557;-72
2021/07/12 07:58:58;;;;;;;30.47;20.40;;;23.60;99.90;;;;;;4976170;28;20208;-72
2021/07/12 08:01:23;;;;;;;25.40;20.60;;;23.70;99.90;;;;;;4974937;28;20184;-72
2021/07/12 08:03:49;;;;;;;25.63;21.17;;;23.90;99.90;;;;;;4975959;28;20669;-72
2021/07/12 08:06:17;;;;;;;26.20;20.77;;;24.20;99.90;;;;;;4958598;28;20185;-72
2021/07/12 08:08:44;;;;;;;23.77;19.57;;;24.30;99.90;;;;;;4973351;28;20219;-72
2021/07/12 08:11:10;;;;;;;24.80;21.00;;;24.40;99.90;;;;;;4974546;28;20208;-72
2021/07/12 08:13:36;;;;;;;22.23;19.23;;;24.30;99.90;;;;;;4974574;28;20200;-72
2021/07/12 08:16:01;;;;;;;22.13;18.80;;;24.10;99.90;;;;;;4974737;28;20584;-73
2021/07/12 08:18:27;;;;;;;25.43;19.80;;;24.10;99.90;;;;;;4974513;28;20794;-72
2021/07/12 08:20:52;;;;;;;23.67;19.63;;;23.90;99.90;;;;;;4958205;28;20185;-73
2021/07/12 08:23:19;;;;;;;22.87;18.77;;;23.80;99.90;;;;;;4974522;28;20219;-73
2021/07/12 08:25:44;;;;;;;22.07;18.33;;;23.90;99.90;;;;;;4974488;28;20185;-72
2021/07/12 08:28:10;;;;;;;24.77;18.20;;;24.10;99.90;;;;;;4974694;28;20764;-72
2021/07/12 08:30:36;;;;;;;24.53;20.73;;;24.20;99.90;;;;;;4974093;28;20252;-73
2021/07/12 08:33:01;;;;;;;22.83;20.13;;;24.30;99.90;;;;;;4975514;28;20185;-72
2021/07/12 08:35:27;;;;;;;22.53;20.13;;;24.30;99.90;;;;;;4975456;28;20209;-72
2021/07/12 08:37:52;;;;;;;21.37;18.80;;;24.30;99.90;;;;;;4974294;28;20185;-72
2021/07/12 08:40:20;;;;;;;18.80;16.80;;;24.40;99.90;;;;;;4974246;28;20247;-72
2021/07/12 08:42:46;;;;;;;18.93;17.03;;;24.50;99.90;;;;;;4974349;28;20207;-72
2021/07/12 08:45:13;;;;;;;20.33;18.17;;;24.60;99.90;;;;;;4974067;28;20185;-72
2021/07/12 08:47:38;;;;;;;19.90;17.75;;;24.60;99.90;;;;;;4974081;28;20184;-72
2021/07/12 08:50:05;;;;;;;19.17;16.17;;;24.40;99.90;;;;;;4973695;28;20766;-72
2021/07/12 08:52:30;;;;;;;18.87;16.97;;;24.30;99.90;;;;;;4974274;28;20203;-72
2021/07/12 08:54:56;;;;;;;21.35;17.23;;;24.30;99.90;;;;;;4973996;28;20640;-72
2021/07/12 08:57:22;;;;;;;20.73;18.00;;;24.10;99.90;;;;;;4975016;28;20668;-72
2021/07/12 08:59:47;;;;;;;23.40;18.38;;;24.10;99.90;;;;;;4973608;28;20260;-72
2021/07/12 09:02:17;;;;;;;21.65;17.27;;;23.80;99.90;;;;;;4973775;28;20216;-72
2021/07/12 09:04:50;;;;;;;18.97;16.97;;;23.70;99.90;;;;;;4957479;28;20213;-72
2021/07/12 09:07:28;;;;;;;20.00;17.63;;;23.80;99.90;;;;;;4973687;28;20217;-73
2021/07/12 09:10:04;;;;;;;21.07;18.23;;;23.80;99.90;;;;;;4973141;28;20700;-73
2021/07/12 09:12:41;;;;;;;18.60;16.70;;;23.60;99.90;;;;;;4973597;28;20173;-72
2021/07/12 09:15:17;;;;;;;24.33;18.45;;;23.70;99.90;;;;;;4973647;28;20624;-72
2021/07/12 09:17:45;;;;;;;21.53;17.80;;;23.60;99.90;;;;;;4973493;28;20173;-72
2021/07/12 09:20:12;;;;;;;19.65;17.55;;;23.50;99.90;;;;;;4973023;28;20209;-72
2021/07/12 09:22:39;;;;;;;21.97;19.00;;;23.30;99.90;;;;;;4973394;28;20240;-72
2021/07/12 09:25:06;;;;;;;21.07;18.70;;;23.40;99.90;;;;;;4973340;28;20177;-72
2021/07/12 09:27:32;;;;;;;20.52;17.17;;;23.50;99.90;;;;;;4973212;28;20207;-72
2021/07/12 09:30:00;;;;;;;18.10;15.95;;;23.60;99.90;;;;;;4956865;28;20248;-72
2021/07/12 09:32:27;;;;;;;18.83;16.83;;;23.60;99.90;;;;;;4973198;28;20228;-72
2021/07/12 09:35:02;;;;;;;21.63;17.60;;;23.70;99.90;;;;;;4974410;28;20173;-72
2021/07/12 09:37:28;;;;;;;19.80;17.70;;;23.70;99.90;;;;;;4973145;28;20172;-72
2021/07/12 09:39:53;;;;;;;18.83;16.03;;;23.80;99.90;;;;;;4972718;28;20200;-72
2021/07/12 09:42:24;;;;;;;18.23;16.25;;;23.90;99.90;;;;;;4974267;28;20204;-72
2021/07/12 09:44:57;;;;;;;16.88;15.20;;;24.10;99.90;;;;;;4956781;28;20240;-72
2021/07/12 09:47:24;;;;;;;18.98;17.00;;;24.20;99.90;;;;;;4973218;28;20272;-72
2021/07/12 09:49:50;;;;;;;16.02;14.18;;;24.40;99.90;;;;;;4972534;28;20292;-72
2021/07/12 09:52:17;;;;;;;15.63;14.00;;;24.60;99.90;;;;;;4972774;28;20669;-72
2021/07/12 09:54:47;;;;;;;14.95;13.40;;;24.70;99.90;;;;;;4972718;28;20173;-72
2021/07/12 09:57:20;;;;;;;14.57;13.00;;;24.70;99.90;;;;;;4972644;28;20248;-72
2021/07/12 10:00:06;;;;;;;15.20;13.60;;;24.60;99.90;;;;;;4956336;28;20305;-72
2021/07/12 10:02:33;;;;;;;14.32;12.77;;;24.60;99.90;;;;;;4973784;28;20219;-72
2021/07/12 10:05:00;;;;;;;13.82;12.52;;;24.70;99.90;;;;;;4972631;28;20738;-72
2021/07/12 10:07:26;;;;;;;14.38;12.60;;;24.70;99.90;;;;;;4972624;28;20180;-72
2021/07/12 10:09:52;;;;;;;13.85;12.55;;;24.60;99.90;;;;;;4972080;28;20584;-72
2021/07/12 10:12:17;;;;;;;12.75;11.38;;;24.50;99.90;;;;;;4973791;28;20173;-72
2021/07/12 10:14:43;;;;;;;13.23;11.82;;;24.50;99.90;;;;;;4972536;28;20173;-72
2021/07/12 10:17:09;;;;;;;13.27;11.98;;;24.60;99.90;;;;;;4972479;28;20263;-72
2021/07/12 10:19:36;;;;;;;11.63;10.43;;;24.60;99.90;;;;;;4972031;28;20197;-72
2021/07/12 10:22:02;;;;;;;12.13;10.85;;;24.80;99.90;;;;;;4972415;28;20189;-72
2021/07/12 10:24:33;;;;;;;10.90;9.80;;;25.00;99.90;;;;;;4956332;28;20185;-72
2021/07/12 10:26:59;;;;;;;12.02;10.93;;;25.00;99.90;;;;;;4972280;28;20231;-72
2021/07/12 10:29:33;;;;;;;12.00;10.80;;;25.00;99.90;;;;;;4971968;28;20193;-73
2021/07/12 10:32:00;;;;;;;12.38;10.50;;;25.00;99.90;;;;;;4971645;28;20633;-72
2021/07/12 10:34:45;;;;;;;11.35;9.93;;;24.90;99.90;;;;;;4972154;28;20637;-72
2021/07/12 10:37:27;;;;;;;10.35;9.35;;;24.80;99.90;;;;;;4972206;28;20161;-72
2021/07/12 10:40:14;;;;;;;9.63;8.65;;;24.60;99.90;;;;;;4971945;28;20192;-73
2021/07/12 10:42:45;;;;;;;9.32;8.45;;;24.70;99.90;;;;;;4972027;28;20187;-72
2021/07/12 10:45:14;;;;;;;10.10;8.65;;;24.80;99.90;;;;;;4973286;28;20179;-72
2021/07/12 10:47:54;;;;;;;9.85;8.10;;;24.80;99.90;;;;;;4973215;28;20177;-72
2021/07/12 10:50:36;;;;;;;9.93;8.90;;;24.80;99.90;;;;;;4971729;28;20258;-72
2021/07/12 10:53:22;;;;;;;9.48;8.48;;;24.70;99.90;;;;;;4973155;28;20683;-72
2021/07/12 10:55:57;;;;;;;10.02;8.57;;;24.60;99.90;;;;;;4972477;28;20255;-72
2021/07/12 10:58:26;;;;;;;9.88;8.75;;;24.70;99.90;;;;;;4973068;28;20284;-73
2021/07/12 11:00:52;;;;;;;9.95;8.25;;;24.70;99.90;;;;;;4973148;28;20180;-72
2021/07/12 11:03:34;;;;;;;9.15;8.20;;;24.80;99.90;;;;;;4971987;28;20185;-72
2021/07/12 11:06:00;;;;;;;11.15;10.05;;;25.10;99.90;;;;;;4973132;28;20173;-72
2021/07/12 11:08:44;;;;;;;10.05;9.05;;;25.30;99.90;;;;;;4971629;28;20652;-72
2021/07/12 11:11:11;;;;;;;9.65;8.25;;;25.40;99.90;;;;;;4972755;28;20763;-71
2021/07/12 11:13:58;;;;;;;8.85;7.95;;;25.40;99.90;;;;;;4972130;28;20177;-72
2021/07/12 11:16:47;;;;;;;10.05;7.93;;;25.40;99.90;;;;;;4972517;28;20173;-71
2021/07/12 11:19:19;;;;;;;9.23;7.60;;;25.30;99.90;;;;;;4971861;28;20215;-71
2021/07/12 11:21:45;;;;;;;7.70;6.93;;;25.30;99.90;;;;;;4973156;28;20541;-72
2021/07/12 11:24:10;;;;;;;9.07;8.20;;;25.10;99.90;;;;;;4971848;28;20184;-71
2021/07/12 11:26:40;;;;;;;7.82;7.13;;;25.10;99.90;;;;;;4973149;28;20177;-72
2021/07/12 11:29:19;;;;;;;9.45;8.15;;;25.10;99.90;;;;;;4971654;28;20669;-72
2021/07/12 11:32:03;;;;;;;8.80;7.90;;;25.40;99.90;;;;;;4973515;28;20169;-71
2021/07/12 11:34:37;;;;;;;10.93;8.70;;;25.60;99.90;;;;;;4973218;28;20661;-72
2021/07/12 11:37:10;;;;;;;8.18;7.38;;;25.80;99.90;;;;;;4972025;28;20231;-71
2021/07/12 11:39:44;;;;;;;8.93;6.75;;;25.80;99.90;;;;;;4971832;28;20193;-72
2021/07/12 11:42:11;;;;;;;7.00;6.30;;;26.00;99.90;;;;;;4971931;28;20675;-72
2021/07/12 11:44:36;;;;;;;7.78;7.00;;;26.20;99.90;;;;;;4974696;28;20260;-71
2021/07/12 11:47:32;;;;;;;8.07;7.28;;;26.20;99.90;;;;;;4976489;28;20264;-72
2021/07/12 11:50:21;;;;;;;9.70;8.70;;;26.10;99.90;;;;;;4974985;28;20599;-72
2021/07/12 11:52:49;;;;;;;8.52;6.80;;;25.70;99.90;;;;;;4976379;28;20613;-72
2021/07/12 11:55:23;;;;;;;8.05;6.88;;;25.70;99.90;;;;;;4959402;28;20188;-71
2021/07/12 11:57:50;;;;;;;7.63;5.70;;;25.70;99.90;;;;;;4975177;28;20273;-72
2021/07/12 12:00:17;;;;;;;8.82;6.38;;;25.80;99.90;;;;;;4976183;28;20199;-71
2021/07/12 12:02:43;;;;;;;7.72;7.03;;;26.00;99.90;;;;;;4975170;28;20711;-71
2021/07/12 12:05:09;;;;;;;6.93;6.32;;;26.10;99.90;;;;;;4974826;28;20185;-72
2021/07/12 12:07:38;;;;;;;7.60;6.85;;;26.20;99.90;;;;;;4975648;28;20177;-73
2021/07/12 12:10:14;;;;;;;8.32;7.10;;;26.30;99.90;;;;;;4975966;28;20215;-71
2021/07/12 12:12:42;;;;;;;7.50;6.80;;;26.30;99.90;;;;;;4975221;28;20173;-72
2021/07/12 12:15:14;;;;;;;7.75;7.05;;;26.40;99.90;;;;;;4976389;28;20239;-71
2021/07/12 12:17:43;;;;;;;7.40;6.70;;;26.30;99.90;;;;;;4976245;28;20169;-71
2021/07/12 12:20:12;;;;;;;7.47;6.68;;;26.10;99.90;;;;;;4974503;28;20573;-71
2021/07/12 12:22:38;;;;;;;7.72;6.93;;;26.10;99.90;;;;;;4974564;28;20177;-72
2021/07/12 12:25:04;;;;;;;8.40;7.03;;;26.10;99.90;;;;;;4974661;28;20177;-72
2021/07/12 12:27:30;;;;;;;6.25;5.65;;;26.20;99.90;;;;;;4974859;28;20569;-72
2021/07/12 12:29:55;;;;;;;6.38;5.60;;;26.20;99.90;;;;;;4974284;28;20208;-71
2021/07/12 12:32:31;;;;;;;7.18;6.38;;;26.10;99.90;;;;;;4974577;28;20601;-72
2021/07/12 12:34:59;;;;;;;7.60;6.68;;;26.20;99.90;;;;;;4974243;28;20224;-71
2021/07/12 12:37:34;;;;;;;7.25;6.47;;;26.20;99.90;;;;;;4974412;28;20177;-72